San Francisco, CA (94124)

1:56 PM PDT on July 29, 2016 (GMT -0700)
Bayview - Carroll Station | | Change Station

Elev 23 ft 37.73 °N, 122.40 °W | Updated 8 seconds ago

Partly Cloudy
Partly Cloudy
64.2 °F
Feels Like 64.2 °F
N
4.0
Wind Variable Wind from NW
Gusts 7.4 mph

Today
High -- | Low -- °F
--% Chance of Precip.
Yesterday
High -- | Low -- °F
Precip. -- in
Pressure 29.85 in
Visibility 10.0 miles
Clouds Few 800 ft
Dew Point 55 °F
Humidity 72%
Rainfall 0.00 in
Snow Depth Not available.
6:11 AM 8:20 PM
Waning Crescent, 19% visible
METAR KSFO 291956Z 30014KT 10SM FEW008 19/11 A2985 RMK AO2 SLP107 T01940111
Pressure 29.85 in
Visibility 10.0 miles
Clouds Few 800 ft
Dew Point 55 °F
Humidity 72%
Rainfall 0.00 in
Snow Depth Not available.
6:11 AM 8:20 PM
Waning Crescent, 19% visible
METAR KSFO 291956Z 30014KT 10SM FEW008 19/11 A2985 RMK AO2 SLP107 T01940111

10-Day Weather Forecast

Almanac

Astronomy

Jul. 29, 2016 Rise Set
Actual Time
Civil Twilight
Nautical Twilight
Astronomical Twilight
Moon
Length of Visible Light
Length of Day
Tomorrow will be .
, % of the Moon is Illuminated

Today's Extremes

State Highs State Lows

Community

WunderPhotos

Upload Photos

1,928,411 photos uploaded!

WunderBlog® & News

Nearby

Air Quality

  Air Quality AQ Index Pollutant
Not available.

Snow Depth

Station Depth Elevation

Earthquake Activity

City Distance Mag. Time & Date
Minimum magnitude displayed is 2.5.

Coastal Water Temperatures

Place Temperature

Stations

Nearby Weather Stations

Station Location Temp. Windchill Dew Point Humidity Wind Precip. Elev Updated Type
                   

Watches & Warnings

There are currently no watches in effect.